Time;durP1;ratioP1;P1;durP2;ratioP2;P2;SDS_P1;SDS_P2;PMS_P1;PMS_P2;Temp;Humidity;BMP_temperature;BMP_pressure;BME280_temperature;BME280_humidity;BME280_pressure;Samples;Min_cycle;Max_cycle;Signal;HPM_P1;HPM_P2
2022/08/14 00:00:24;;;;;;;6.15;4.63;;;24.10;81.70;;;;;;4971825;28;20501;-47
2022/08/14 00:02:50;;;;;;;8.38;4.80;;;24.00;82.10;;;;;;4971501;28;20050;-46
2022/08/14 00:05:21;;;;;;;10.20;5.47;;;24.00;82.30;;;;;;4971854;28;20050;-49
2022/08/14 00:07:48;;;;;;;5.82;5.10;;;24.10;82.60;;;;;;4971726;28;20118;-45
2022/08/14 00:10:17;;;;;;;5.78;4.97;;;24.10;82.40;;;;;;4953617;28;20039;-45
2022/08/14 00:12:46;;;;;;;8.27;5.47;;;24.10;82.40;;;;;;4952211;28;20039;-46
2022/08/14 00:15:34;;;;;;;8.85;5.63;;;23.90;82.90;;;;;;4952312;28;20050;-43
2022/08/14 00:18:00;;;;;;;6.55;5.00;;;23.80;83.70;;;;;;4952746;28;20036;-45
2022/08/14 00:20:32;;;;;;;9.25;4.90;;;23.70;83.30;;;;;;4952072;28;20050;-46
2022/08/14 00:22:59;;;;;;;6.72;5.07;;;23.80;83.50;;;;;;4952788;28;20078;-44
2022/08/14 00:25:26;;;;;;;6.35;5.07;;;23.70;83.30;;;;;;4950823;28;20126;-47
2022/08/14 00:27:52;;;;;;;6.30;5.40;;;23.60;83.80;;;;;;4952358;28;20395;-45
2022/08/14 00:30:18;;;;;;;7.40;5.60;;;23.70;84.10;;;;;;4953821;28;20035;-48
2022/08/14 00:32:44;;;;;;;7.10;5.70;;;23.60;83.80;;;;;;4934665;28;20054;-45
2022/08/14 00:35:11;;;;;;;7.15;5.18;;;23.50;85.00;;;;;;4952081;28;20472;-44
2022/08/14 00:37:41;;;;;;;7.72;5.80;;;23.50;84.80;;;;;;4952344;28;20407;-48
2022/08/14 00:40:10;;;;;;;10.35;5.55;;;23.50;84.90;;;;;;4951892;28;20051;-46
2022/08/14 00:42:36;;;;;;;8.35;5.95;;;23.50;85.10;;;;;;4951746;28;20577;-46
2022/08/14 00:45:03;;;;;;;10.15;5.70;;;23.50;85.20;;;;;;4952208;28;20053;-46
2022/08/14 00:47:29;;;;;;;6.45;5.50;;;23.40;85.10;;;;;;4951878;28;20050;-45
2022/08/14 00:49:55;;;;;;;7.43;5.85;;;23.30;84.90;;;;;;4952113;28;20567;-46
2022/08/14 00:52:21;;;;;;;8.68;5.57;;;23.30;85.40;;;;;;4951679;28;20039;-50
2022/08/14 00:54:52;;;;;;;6.97;6.15;;;23.20;85.60;;;;;;4951950;28;20118;-47
2022/08/14 00:57:22;;;;;;;6.75;6.05;;;23.20;85.80;;;;;;4952192;28;20511;-44
2022/08/14 00:59:49;;;;;;;9.02;5.85;;;23.20;85.80;;;;;;4951572;28;20047;-48
2022/08/14 01:02:17;;;;;;;6.63;5.93;;;23.20;85.90;;;;;;4952041;28;20031;-44
2022/08/14 01:04:45;;;;;;;7.72;6.38;;;23.20;85.90;;;;;;4954011;28;20047;-46
2022/08/14 01:07:19;;;;;;;9.55;6.72;;;23.10;86.30;;;;;;4955766;28;20513;-46
2022/08/14 01:09:51;;;;;;;8.63;6.15;;;23.00;86.60;;;;;;4940460;28;20724;-45
2022/08/14 01:12:17;;;;;;;7.07;6.15;;;23.00;86.80;;;;;;4964024;28;20085;-47
2022/08/14 01:14:43;;;;;;;6.95;6.18;;;23.10;86.60;;;;;;4959929;28;20035;-43
2022/08/14 01:17:10;;;;;;;9.32;6.63;;;23.00;86.80;;;;;;4957369;28;20041;-48
2022/08/14 01:22:20;;;;;;;6.80;5.65;;;22.90;87.00;;;;;;4957394;28;20054;-45
2022/08/14 01:24:47;;;;;;;7.28;6.40;;;22.80;87.90;;;;;;4956053;28;20439;-47
2022/08/14 01:27:17;;;;;;;7.20;5.88;;;22.90;87.30;;;;;;4955436;28;20051;-49
2022/08/14 01:29:45;;;;;;;10.27;6.43;;;22.80;88.20;;;;;;4955236;28;20043;-47
2022/08/14 01:32:11;;;;;;;7.32;5.75;;;22.70;88.00;;;;;;4955428;28;20035;-44
2022/08/14 01:34:38;;;;;;;7.70;5.70;;;22.80;87.80;;;;;;4938139;28;20546;-48
2022/08/14 01:37:04;;;;;;;8.35;6.25;;;22.80;87.70;;;;;;4955437;28;20035;-48
2022/08/14 01:39:30;;;;;;;8.43;5.70;;;22.80;87.70;;;;;;4954754;28;20053;-43
2022/08/14 01:41:59;;;;;;;8.93;6.22;;;22.70;88.10;;;;;;4957638;28;20047;-46
2022/08/14 01:44:29;;;;;;;8.55;6.72;;;22.70;88.10;;;;;;4974370;28;20042;-46
2022/08/14 01:46:57;;;;;;;9.23;5.80;;;22.70;88.70;;;;;;4974120;28;20038;-44
2022/08/14 01:49:23;;;;;;;8.82;6.13;;;22.60;88.50;;;;;;4974140;28;20097;-47
2022/08/14 01:51:53;;;;;;;7.05;6.10;;;22.70;88.20;;;;;;4974372;28;20070;-45
2022/08/14 01:54:20;;;;;;;6.40;5.70;;;22.70;88.60;;;;;;4973823;28;20126;-44
2022/08/14 01:56:46;;;;;;;7.50;5.32;;;22.60;88.80;;;;;;4954824;28;20039;-47
2022/08/14 01:59:21;;;;;;;9.43;6.35;;;22.50;89.50;;;;;;4955361;28;20047;-47
2022/08/14 02:01:52;;;;;;;8.32;6.38;;;22.60;89.50;;;;;;4973863;28;20050;-45
2022/08/14 02:04:19;;;;;;;8.32;5.75;;;22.50;89.30;;;;;;4973571;28;20097;-46
2022/08/14 02:06:49;;;;;;;8.15;6.35;;;22.50;89.60;;;;;;4974210;28;20038;-47
2022/08/14 02:09:16;;;;;;;8.65;6.35;;;22.40;89.40;;;;;;4973561;28;20039;-45
2022/08/14 02:11:42;;;;;;;9.98;5.88;;;22.40;89.80;;;;;;4973695;28;20042;-46
2022/08/14 02:14:12;;;;;;;7.55;5.90;;;22.40;90.00;;;;;;4973861;28;20042;-45
2022/08/14 02:16:41;;;;;;;8.00;5.97;;;22.30;90.20;;;;;;4973014;28;20042;-43
2022/08/14 02:19:28;;;;;;;9.30;6.55;;;22.30;90.20;;;;;;4973725;28;20102;-50
2022/08/14 02:21:59;;;;;;;10.70;6.78;;;22.30;90.50;;;;;;4955547;28;20051;-43
2022/08/14 02:24:28;;;;;;;12.40;6.35;;;22.40;90.20;;;;;;4954368;28;20118;-48
2022/08/14 02:26:57;;;;;;;7.65;5.97;;;22.40;90.20;;;;;;4954455;28;20122;-44
2022/08/14 02:29:24;;;;;;;8.68;6.18;;;22.20;90.30;;;;;;4954052;28;20182;-46
2022/08/14 02:31:55;;;;;;;7.18;6.10;;;22.30;90.30;;;;;;4954445;28;20058;-45
2022/08/14 02:34:28;;;;;;;8.13;6.25;;;22.20;90.50;;;;;;4955226;28;20039;-45
2022/08/14 02:37:01;;;;;;;8.00;6.22;;;22.20;90.50;;;;;;4973530;28;20130;-43
2022/08/14 02:39:28;;;;;;;9.10;6.50;;;22.10;90.70;;;;;;4962309;28;20043;-48
2022/08/14 02:41:54;;;;;;;7.70;6.30;;;22.00;90.80;;;;;;4973148;28;20197;-46
2022/08/14 02:44:21;;;;;;;7.43;6.03;;;22.00;91.00;;;;;;4973165;28;20129;-46
2022/08/14 02:46:49;;;;;;;8.40;6.40;;;21.90;91.10;;;;;;4971709;28;20054;-46
2022/08/14 02:49:16;;;;;;;10.65;6.10;;;21.90;91.10;;;;;;4973155;28;20109;-45
2022/08/14 02:51:41;;;;;;;10.13;6.53;;;21.90;91.30;;;;;;4973365;28;20043;-46
2022/08/14 02:54:08;;;;;;;8.30;6.47;;;21.90;91.30;;;;;;4972942;28;20367;-43
2022/08/14 02:56:37;;;;;;;6.70;5.90;;;21.80;91.60;;;;;;4972958;28;20034;-45
2022/08/14 02:59:05;;;;;;;10.10;6.60;;;21.80;91.80;;;;;;4944619;28;20490;-44
2022/08/14 03:01:31;;;;;;;10.45;6.85;;;21.90;91.80;;;;;;4960429;28;20538;-45
2022/08/14 03:03:58;;;;;;;8.27;6.30;;;21.80;91.60;;;;;;4957159;28;20050;-46
2022/08/14 03:06:24;;;;;;;9.02;6.57;;;21.80;91.70;;;;;;4960557;28;20047;-45
2022/08/14 03:08:52;;;;;;;7.85;6.25;;;21.70;91.90;;;;;;4955891;28;20046;-44
2022/08/14 03:11:19;;;;;;;7.47;6.68;;;21.70;91.90;;;;;;4958052;28;20061;-47
2022/08/14 03:13:50;;;;;;;7.88;6.47;;;21.60;92.20;;;;;;4961313;28;20055;-49
2022/08/14 03:16:19;;;;;;;12.30;6.90;;;21.60;92.30;;;;;;4956532;28;20067;-43
2022/08/14 03:18:46;;;;;;;7.57;6.60;;;21.70;92.50;;;;;;4957676;28;20043;-45
2022/08/14 03:21:15;;;;;;;10.07;7.00;;;21.60;92.30;;;;;;4956279;28;20483;-45
2022/08/14 03:23:42;;;;;;;12.88;6.82;;;21.50;92.70;;;;;;4956190;28;20494;-47
2022/08/14 03:26:10;;;;;;;8.80;6.63;;;21.50;92.50;;;;;;4953234;28;20102;-45
2022/08/14 03:28:40;;;;;;;7.18;6.32;;;21.60;92.80;;;;;;4954718;28;20063;-45
2022/08/14 03:31:07;;;;;;;8.85;6.88;;;21.50;92.70;;;;;;4956925;28;20039;-48
2022/08/14 03:33:35;;;;;;;8.93;6.68;;;21.50;92.70;;;;;;4957493;28;20035;-46
2022/08/14 03:36:08;;;;;;;7.82;7.03;;;21.50;92.90;;;;;;4955592;28;20070;-48
2022/08/14 03:38:41;;;;;;;8.88;6.80;;;21.50;92.90;;;;;;4957287;28;20043;-44
2022/08/14 03:41:13;;;;;;;7.35;6.55;;;21.40;93.30;;;;;;4953905;28;20050;-47
2022/08/14 03:43:40;;;;;;;8.43;7.13;;;21.50;93.20;;;;;;4958737;28;20035;-46
2022/08/14 03:46:06;;;;;;;9.80;6.43;;;21.30;93.50;;;;;;4956264;28;20475;-44
2022/08/14 03:48:32;;;;;;;8.02;6.75;;;21.30;93.40;;;;;;4956166;28;20046;-48
2022/08/14 03:50:58;;;;;;;9.82;6.68;;;21.30;93.70;;;;;;4959043;28;20046;-49
2022/08/14 03:53:25;;;;;;;9.90;7.28;;;21.20;93.70;;;;;;4952408;28;20039;-45
2022/08/14 03:55:55;;;;;;;7.68;6.63;;;21.30;93.80;;;;;;4952378;28;20047;-43
2022/08/14 03:58:21;;;;;;;7.63;6.82;;;21.20;94.00;;;;;;4972284;28;20490;-46
2022/08/14 04:00:47;;;;;;;8.50;6.95;;;21.20;94.10;;;;;;4971990;28;20110;-48
2022/08/14 04:03:13;;;;;;;8.75;7.03;;;21.20;94.20;;;;;;4941465;28;20047;-48
2022/08/14 04:05:41;;;;;;;8.98;6.88;;;21.20;94.30;;;;;;4952389;28;20043;-45
2022/08/14 04:08:10;;;;;;;11.07;7.82;;;21.00;94.60;;;;;;4952764;28;20043;-46
2022/08/14 04:10:37;;;;;;;12.00;7.63;;;21.00;94.80;;;;;;4965567;28;21915;-44
2022/08/14 04:13:04;;;;;;;8.93;7.15;;;21.00;95.00;;;;;;4971276;28;20117;-47
2022/08/14 04:15:34;;;;;;;7.88;6.57;;;21.00;95.00;;;;;;4971609;28;20042;-43
2022/08/14 04:18:08;;;;;;;10.10;7.03;;;21.00;95.00;;;;;;4971615;28;20423;-47
2022/08/14 04:20:38;;;;;;;9.70;7.45;;;21.00;95.00;;;;;;4956011;28;20049;-43
2022/08/14 04:23:05;;;;;;;8.15;7.32;;;20.90;95.40;;;;;;4956556;28;20506;-44
2022/08/14 04:25:35;;;;;;;8.38;7.18;;;20.80;95.70;;;;;;4971214;28;20133;-46
2022/08/14 04:28:05;;;;;;;8.20;7.35;;;20.80;95.70;;;;;;4971430;28;20049;-44
2022/08/14 04:30:32;;;;;;;9.20;7.13;;;20.80;95.90;;;;;;4971202;28;20051;-45
2022/08/14 04:32:58;;;;;;;10.90;7.95;;;20.80;95.90;;;;;;4971711;28;20125;-46
2022/08/14 04:35:23;;;;;;;8.68;7.63;;;20.80;96.10;;;;;;4971112;28;20126;-44
2022/08/14 04:43:37;;;;;;;;;;;20.70;96.50;;;;;;4971357;28;20065;-48
2022/08/14 04:46:11;;;;;;;8.90;8.00;;;20.60;97.20;;;;;;4971266;28;20366;-43
2022/08/14 04:48:37;;;;;;;8.38;7.38;;;20.70;96.80;;;;;;4971521;28;20434;-47
2022/08/14 04:51:11;;;;;;;9.38;7.85;;;20.70;97.00;;;;;;4970766;28;20042;-48
2022/08/14 04:53:41;;;;;;;8.25;7.40;;;20.70;97.20;;;;;;4971556;28;20146;-47
2022/08/14 04:56:07;;;;;;;11.98;8.52;;;20.70;97.20;;;;;;4971223;28;20122;-45
2022/08/14 04:58:34;;;;;;;8.90;8.00;;;20.70;97.30;;;;;;4969837;28;20093;-47
2022/08/14 05:01:05;;;;;;;9.07;8.18;;;20.70;97.40;;;;;;4968511;28;20051;-48
2022/08/14 05:03:32;;;;;;;8.98;7.88;;;20.70;97.70;;;;;;4951855;28;20081;-46
2022/08/14 05:06:01;;;;;;;9.20;8.20;;;20.60;98.20;;;;;;4950407;28;20043;-45
2022/08/14 05:08:28;;;;;;;8.98;7.70;;;20.70;97.80;;;;;;4951871;28;20051;-45
2022/08/14 05:10:57;;;;;;;10.05;7.93;;;20.70;97.80;;;;;;4951746;28;20491;-46
2022/08/14 05:13:25;;;;;;;9.52;8.00;;;20.70;98.00;;;;;;4951341;28;20852;-46
2022/08/14 05:15:53;;;;;;;9.57;7.85;;;20.70;98.00;;;;;;4951847;28;20395;-44
2022/08/14 05:18:22;;;;;;;9.80;8.43;;;20.70;98.20;;;;;;4953140;28;21907;-43
2022/08/14 05:20:50;;;;;;;9.13;8.23;;;20.70;98.40;;;;;;4952778;28;20073;-45
2022/08/14 05:23:18;;;;;;;9.70;7.53;;;20.80;98.40;;;;;;4951512;28;20083;-45
2022/08/14 05:25:50;;;;;;;9.27;8.27;;;20.80;98.40;;;;;;4952658;28;20124;-45
2022/08/14 05:28:21;;;;;;;9.10;8.15;;;20.80;98.70;;;;;;4951917;28;20505;-44
2022/08/14 05:30:49;;;;;;;9.80;8.77;;;20.90;98.70;;;;;;4951857;28;20066;-45
2022/08/14 05:33:17;;;;;;;11.23;8.43;;;20.90;98.80;;;;;;4951555;28;20039;-45
2022/08/14 05:35:44;;;;;;;9.75;8.75;;;20.80;99.00;;;;;;4951626;28;20038;-46
2022/08/14 05:38:14;;;;;;;10.18;8.23;;;20.90;98.70;;;;;;4951531;28;20611;-44
2022/08/14 05:40:40;;;;;;;10.77;8.60;;;21.00;99.10;;;;;;4951724;28;20537;-46
2022/08/14 05:43:06;;;;;;;11.90;8.75;;;21.00;98.80;;;;;;4951367;28;20054;-45
2022/08/14 05:45:34;;;;;;;9.38;8.35;;;21.20;99.10;;;;;;4952095;28;20475;-44
2022/08/14 05:48:00;;;;;;;13.07;8.20;;;21.20;98.70;;;;;;4970559;28;20046;-44
2022/08/14 05:50:26;;;;;;;9.13;7.70;;;21.30;98.80;;;;;;4970708;28;20038;-47
2022/08/14 05:52:53;;;;;;;10.18;8.50;;;21.30;98.70;;;;;;4955251;28;20043;-43
2022/08/14 05:55:19;;;;;;;10.77;8.15;;;21.40;98.90;;;;;;4954750;28;20035;-47
2022/08/14 05:57:47;;;;;;;11.60;9.23;;;21.40;98.80;;;;;;4954871;28;20043;-45
2022/08/14 06:00:14;;;;;;;11.35;8.50;;;21.40;99.00;;;;;;4954708;28;20039;-48
2022/08/14 06:02:40;;;;;;;11.07;8.20;;;21.40;99.20;;;;;;4954531;28;20083;-44
2022/08/14 06:05:06;;;;;;;10.10;7.95;;;21.40;98.90;;;;;;4954839;28;20129;-46
2022/08/14 06:07:37;;;;;;;9.27;8.15;;;21.40;99.10;;;;;;4961273;28;20518;-44
2022/08/14 06:10:05;;;;;;;10.80;8.20;;;21.50;99.20;;;;;;4974017;28;20125;-46
2022/08/14 06:12:31;;;;;;;11.63;7.90;;;21.50;99.10;;;;;;4973427;28;20038;-48
2022/08/14 06:14:58;;;;;;;9.52;8.13;;;21.60;99.20;;;;;;4973866;28;20182;-48
2022/08/14 06:17:24;;;;;;;10.68;8.43;;;21.60;99.10;;;;;;4973357;28;20046;-49
2022/08/14 06:19:49;;;;;;;9.02;8.10;;;21.70;99.30;;;;;;4973750;28;20038;-49
2022/08/14 06:22:15;;;;;;;10.90;8.55;;;21.70;98.90;;;;;;4973208;28;20406;-46
2022/08/14 06:24:41;;;;;;;9.48;7.93;;;21.80;98.90;;;;;;4973890;28;20046;-49
2022/08/14 06:27:06;;;;;;;9.85;8.13;;;21.80;99.10;;;;;;4973929;28;20130;-46
2022/08/14 06:29:33;;;;;;;10.30;8.43;;;21.90;99.20;;;;;;4973409;28;20046;-47
2022/08/14 06:31:59;;;;;;;12.77;8.00;;;21.90;98.90;;;;;;4973702;28;20105;-48
2022/08/14 06:34:24;;;;;;;10.70;8.27;;;22.00;99.20;;;;;;4973357;28;20031;-46
2022/08/14 06:36:50;;;;;;;8.88;7.97;;;22.00;98.80;;;;;;4973606;28;20062;-47
2022/08/14 06:39:16;;;;;;;9.70;7.70;;;22.10;99.00;;;;;;4973384;28;20046;-48
2022/08/14 06:41:41;;;;;;;10.18;7.90;;;22.10;98.90;;;;;;4973356;28;20047;-47
2022/08/14 06:44:09;;;;;;;9.80;8.10;;;22.20;98.80;;;;;;4972708;28;20052;-46
2022/08/14 06:46:35;;;;;;;10.90;7.65;;;22.30;98.70;;;;;;4973446;28;20051;-46
2022/08/14 06:49:01;;;;;;;8.82;7.38;;;22.40;98.80;;;;;;4973287;28;20546;-47
2022/08/14 06:51:27;;;;;;;9.27;8.02;;;22.50;98.90;;;;;;4973186;28;20031;-48
2022/08/14 06:53:53;;;;;;;9.38;7.75;;;22.50;98.90;;;;;;4972810;28;20050;-46
2022/08/14 06:56:19;;;;;;;9.68;8.00;;;22.50;98.70;;;;;;4973053;28;20035;-50
2022/08/14 06:58:45;;;;;;;8.48;7.57;;;22.60;98.40;;;;;;4972854;28;20042;-48
2022/08/14 07:06:39;;;;;;;10.80;8.07;;;22.80;98.80;;;;;;4973192;28;19928;-45
2022/08/14 07:09:05;;;;;;;9.68;8.05;;;22.80;98.40;;;;;;4972726;28;20386;-47
2022/08/14 07:11:31;;;;;;;8.80;7.90;;;22.90;98.50;;;;;;4972802;28;20494;-45
2022/08/14 07:13:57;;;;;;;9.20;8.05;;;23.00;98.50;;;;;;4972039;28;20038;-45
2022/08/14 07:16:22;;;;;;;9.27;7.68;;;23.10;98.30;;;;;;4972647;28;20390;-48
2022/08/14 07:18:48;;;;;;;8.60;7.75;;;23.20;98.20;;;;;;4972720;28;20102;-45
2022/08/14 07:21:14;;;;;;;10.18;8.23;;;23.20;98.60;;;;;;4969748;28;20761;-44
2022/08/14 07:23:40;;;;;;;9.10;8.00;;;23.30;98.40;;;;;;4965508;28;20114;-47
2022/08/14 07:26:06;;;;;;;9.75;7.68;;;23.30;98.10;;;;;;4961045;28;20043;-47
2022/08/14 07:28:38;;;;;;;9.32;7.80;;;23.40;97.90;;;;;;4963348;28;20616;-44
2022/08/14 07:31:09;;;;;;;8.43;7.47;;;23.50;97.80;;;;;;4961058;28;20478;-48
2022/08/14 07:33:44;;;;;;;11.85;7.75;;;23.50;97.70;;;;;;4962077;28;20034;-47
2022/08/14 07:36:13;;;;;;;10.73;8.00;;;23.60;97.70;;;;;;4964080;28;20074;-48
2022/08/14 07:38:42;;;;;;;9.73;7.70;;;23.60;97.70;;;;;;4957420;28;20070;-44
2022/08/14 07:41:10;;;;;;;9.88;7.97;;;23.70;98.10;;;;;;4956103;28;20098;-47
2022/08/14 07:43:36;;;;;;;8.40;7.20;;;23.70;97.60;;;;;;4960969;28;20047;-47
2022/08/14 07:46:03;;;;;;;8.85;7.57;;;23.80;97.60;;;;;;4954938;28;20148;-49
2022/08/14 07:48:29;;;;;;;9.82;7.75;;;23.90;97.50;;;;;;4958845;28;20089;-47
2022/08/14 07:50:55;;;;;;;8.55;7.63;;;23.90;97.50;;;;;;4951648;28;20078;-49
2022/08/14 07:53:21;;;;;;;8.50;7.20;;;24.00;97.30;;;;;;4954223;28;20043;-48
2022/08/14 07:55:47;;;;;;;9.40;7.18;;;24.10;97.40;;;;;;4951387;28;20045;-49
2022/08/14 07:58:16;;;;;;;9.13;7.15;;;24.20;97.40;;;;;;4952952;28;20038;-45
2022/08/14 08:00:43;;;;;;;9.23;7.07;;;24.30;97.30;;;;;;4953492;28;20047;-48
2022/08/14 08:03:09;;;;;;;11.23;7.50;;;24.30;97.20;;;;;;4952476;28;20039;-44
2022/08/14 08:05:38;;;;;;;7.97;6.90;;;24.40;97.10;;;;;;4951731;28;20391;-45
2022/08/14 08:08:05;;;;;;;8.20;7.00;;;24.50;96.90;;;;;;4951288;28;20577;-46
2022/08/14 08:10:31;;;;;;;8.98;7.03;;;24.60;96.60;;;;;;4950980;28;20047;-45
2022/08/14 08:13:06;;;;;;;10.13;7.47;;;24.60;96.20;;;;;;4950705;28;20411;-46
2022/08/14 08:15:35;;;;;;;9.27;7.15;;;24.70;96.30;;;;;;4953622;28;20031;-50
2022/08/14 08:18:03;;;;;;;7.10;6.40;;;24.70;96.30;;;;;;4970130;28;20114;-46
2022/08/14 08:20:31;;;;;;;10.13;6.40;;;24.80;96.10;;;;;;4954980;28;20042;-44
2022/08/14 08:22:58;;;;;;;9.27;6.78;;;24.90;96.10;;;;;;4961303;28;20047;-45
2022/08/14 08:25:26;;;;;;;10.45;6.80;;;25.00;95.90;;;;;;4962318;28;20054;-47
2022/08/14 08:28:00;;;;;;;8.75;7.15;;;25.10;96.20;;;;;;4963232;28;20042;-46
2022/08/14 08:30:27;;;;;;;7.78;6.53;;;25.10;95.60;;;;;;4961332;28;20099;-46
2022/08/14 08:32:55;;;;;;;9.25;6.70;;;25.20;95.70;;;;;;4961844;28;20082;-47
2022/08/14 08:35:26;;;;;;;10.55;7.35;;;25.20;95.30;;;;;;4961913;28;20085;-48
2022/08/14 08:37:53;;;;;;;9.52;7.07;;;25.40;95.40;;;;;;4958690;28;20424;-44
2022/08/14 08:40:22;;;;;;;7.28;6.55;;;25.40;95.20;;;;;;4960283;28;20042;-46
2022/08/14 08:42:48;;;;;;;8.90;6.70;;;25.60;95.20;;;;;;4959812;28;20126;-46
2022/08/14 08:45:15;;;;;;;8.65;6.10;;;25.60;95.30;;;;;;4961230;28;20688;-49
2022/08/14 08:47:41;;;;;;;8.00;6.45;;;25.70;95.00;;;;;;4962963;28;20050;-48
2022/08/14 08:50:28;;;;;;;6.93;6.22;;;25.80;95.10;;;;;;4961848;28;20395;-45
2022/08/14 08:52:56;;;;;;;8.73;6.47;;;25.90;95.20;;;;;;4962307;28;20383;-47
2022/08/14 08:55:25;;;;;;;8.35;6.57;;;25.90;94.90;;;;;;4962799;28;20033;-45
2022/08/14 08:57:59;;;;;;;9.82;6.50;;;26.10;94.90;;;;;;4959108;28;21364;-49
2022/08/14 09:00:28;;;;;;;8.98;6.60;;;26.30;94.20;;;;;;4960069;28;20479;-46
2022/08/14 09:03:01;;;;;;;8.32;6.03;;;26.50;94.20;;;;;;4957853;28;20047;-48
2022/08/14 09:05:28;;;;;;;8.45;5.97;;;26.50;93.40;;;;;;4960207;28;20070;-48
2022/08/14 09:08:07;;;;;;;10.20;5.93;;;26.60;93.00;;;;;;4959519;28;20053;-45
2022/08/14 09:10:33;;;;;;;8.00;5.90;;;26.80;93.10;;;;;;4961656;28;20051;-50
2022/08/14 09:12:59;;;;;;;7.55;5.40;;;26.90;92.70;;;;;;4961025;28;20398;-47
2022/08/14 09:15:26;;;;;;;6.15;5.18;;;26.90;92.00;;;;;;4957942;28;20030;-47
2022/08/14 09:17:51;;;;;;;7.63;5.55;;;27.20;91.80;;;;;;4961357;28;20054;-48
2022/08/14 09:20:18;;;;;;;7.75;5.25;;;27.20;91.50;;;;;;4958244;28;20042;-48
2022/08/14 09:22:45;;;;;;;6.38;5.32;;;27.30;91.90;;;;;;4958936;28;20657;-47
2022/08/14 09:25:11;;;;;;;7.32;4.88;;;27.50;91.20;;;;;;4960349;28;20062;-46
2022/08/14 09:27:37;;;;;;;9.45;5.00;;;27.70;91.10;;;;;;4961862;28;20397;-45
2022/08/14 09:30:06;;;;;;;7.45;4.55;;;27.80;90.50;;;;;;4962257;28;20039;-45
2022/08/14 09:32:45;;;;;;;7.53;4.70;;;28.00;90.00;;;;;;4962179;28;20039;-50
2022/08/14 09:35:15;;;;;;;6.45;4.50;;;28.00;89.30;;;;;;4962807;28;20032;-46
2022/08/14 09:37:56;;;;;;;7.93;4.15;;;28.20;89.90;;;;;;4963499;28;20043;-48
2022/08/14 09:40:47;;;;;;;6.25;4.70;;;28.30;88.90;;;;;;4961378;28;20117;-49
2022/08/14 09:43:35;;;;;;;6.25;4.60;;;28.50;88.90;;;;;;4964136;28;20050;-49
2022/08/14 09:46:06;;;;;;;8.02;4.93;;;28.70;88.30;;;;;;4961929;28;20068;-46
2022/08/14 09:48:32;;;;;;;7.10;4.95;;;28.70;87.60;;;;;;4961470;28;21663;-48
2022/08/14 09:50:59;;;;;;;6.63;4.35;;;28.60;87.80;;;;;;4961654;28;20050;-47
2022/08/14 09:53:37;;;;;;;7.93;4.40;;;28.90;87.80;;;;;;4963046;28;20046;-46
2022/08/14 09:56:04;;;;;;;5.95;4.53;;;29.00;86.30;;;;;;4960629;28;20121;-47
2022/08/14 09:58:39;;;;;;;6.15;4.60;;;29.10;86.90;;;;;;4962593;28;20035;-46
2022/08/14 10:01:09;;;;;;;6.80;4.60;;;29.10;84.50;;;;;;4961860;28;20042;-47
2022/08/14 10:03:36;;;;;;;8.85;5.22;;;29.20;85.40;;;;;;4962322;28;20414;-47
2022/08/14 10:06:10;;;;;;;5.30;4.70;;;29.20;87.00;;;;;;4962049;28;20131;-46
2022/08/14 10:08:52;;;;;;;5.70;4.63;;;29.40;85.60;;;;;;4960982;28;20039;-47
2022/08/14 10:11:22;;;;;;;5.90;4.63;;;29.50;85.80;;;;;;4962068;28;20500;-47
2022/08/14 10:13:55;;;;;;;6.43;4.90;;;29.40;83.90;;;;;;4960406;28;20139;-47
2022/08/14 10:16:24;;;;;;;5.72;4.63;;;29.50;83.90;;;;;;4960216;28;20034;-48
2022/08/14 10:19:11;;;;;;;7.50;4.45;;;29.50;83.50;;;;;;4962645;28;20081;-44
2022/08/14 10:21:39;;;;;;;6.00;4.45;;;29.40;82.90;;;;;;4961495;28;20491;-47
2022/08/14 10:24:08;;;;;;;5.82;4.22;;;29.40;83.70;;;;;;4961176;28;20046;-47
2022/08/14 10:26:34;;;;;;;5.95;4.82;;;29.50;80.80;;;;;;4962813;28;20066;-45
2022/08/14 10:29:16;;;;;;;6.47;4.72;;;29.50;83.50;;;;;;4960272;28;20042;-45
2022/08/14 10:31:41;;;;;;;7.00;4.57;;;29.40;81.80;;;;;;4960951;28;20043;-46
2022/08/14 10:34:11;;;;;;;5.65;4.32;;;29.40;82.30;;;;;;4945316;28;20500;-45
2022/08/14 10:36:42;;;;;;;5.90;4.45;;;29.50;82.40;;;;;;4960430;28;20395;-46
2022/08/14 10:39:18;;;;;;;7.80;4.57;;;29.60;82.40;;;;;;4962455;28;20054;-46
2022/08/14 10:41:45;;;;;;;7.88;4.38;;;29.80;82.00;;;;;;4945896;28;20037;-43
2022/08/14 10:44:17;;;;;;;6.38;4.25;;;29.80;82.60;;;;;;4959290;28;20225;-45
2022/08/14 10:47:03;;;;;;;7.85;4.47;;;29.90;81.00;;;;;;4945183;28;20054;-46
2022/08/14 10:49:29;;;;;;;6.93;4.43;;;30.00;81.90;;;;;;4963628;28;20511;-45
2022/08/14 10:52:04;;;;;;;6.35;4.45;;;30.00;81.60;;;;;;4963438;28;20039;-46
2022/08/14 10:54:34;;;;;;;5.53;4.68;;;29.90;80.30;;;;;;4961767;28;20041;-44
2022/08/14 10:57:20;;;;;;;9.02;4.63;;;30.00;81.30;;;;;;4959417;28;20036;-46
2022/08/14 10:59:54;;;;;;;6.57;3.88;;;30.30;81.50;;;;;;4945677;28;20047;-47
2022/08/14 11:02:20;;;;;;;7.65;4.40;;;30.30;80.40;;;;;;4962382;28;20042;-47
2022/08/14 11:05:07;;;;;;;5.85;4.13;;;30.50;81.50;;;;;;4960940;28;20442;-47
2022/08/14 11:07:35;;;;;;;4.88;4.15;;;30.60;79.60;;;;;;4959285;28;20035;-46
2022/08/14 11:10:07;;;;;;;7.05;4.68;;;30.50;79.30;;;;;;4961189;28;20510;-45
2022/08/14 11:12:51;;;;;;;6.13;4.32;;;30.50;80.40;;;;;;4959616;28;20134;-47
2022/08/14 11:15:26;;;;;;;6.28;4.32;;;30.70;80.00;;;;;;4961980;28;20074;-48
2022/08/14 11:17:52;;;;;;;5.70;4.07;;;30.80;78.50;;;;;;4960765;28;20035;-45
2022/08/14 11:20:22;;;;;;;7.55;4.35;;;30.90;79.50;;;;;;4961635;28;20402;-46
2022/08/14 11:22:56;;;;;;;6.50;4.45;;;30.90;78.70;;;;;;4960785;28;20113;-46
2022/08/14 11:25:25;;;;;;;6.78;4.53;;;31.10;77.40;;;;;;4961137;28;20468;-49
2022/08/14 11:27:55;;;;;;;6.40;4.18;;;31.20;79.70;;;;;;4961712;28;20043;-45
2022/08/14 11:30:23;;;;;;;6.68;3.95;;;31.40;79.30;;;;;;4960969;28;20043;-45
2022/08/14 11:32:51;;;;;;;5.13;3.80;;;31.40;78.90;;;;;;4962110;28;20065;-48
2022/08/14 11:35:22;;;;;;;5.90;4.18;;;31.50;77.20;;;;;;4961169;28;20041;-46
2022/08/14 11:37:55;;;;;;;5.07;3.90;;;31.50;78.20;;;;;;4959623;28;20026;-48
2022/08/14 11:40:23;;;;;;;4.82;3.45;;;31.70;75.90;;;;;;4960358;28;20450;-47
2022/08/14 11:42:54;;;;;;;5.88;3.88;;;31.80;77.10;;;;;;4962110;28;20074;-46
2022/08/14 11:45:25;;;;;;;5.13;3.88;;;31.80;77.30;;;;;;4962288;28;20101;-46
2022/08/14 11:47:53;;;;;;;6.35;4.10;;;32.00;75.40;;;;;;4962647;28;20190;-47
2022/08/14 11:50:26;;;;;;;7.05;3.80;;;32.00;73.80;;;;;;4962015;28;20077;-47
2022/08/14 11:52:54;;;;;;;8.00;3.75;;;32.10;75.60;;;;;;4962163;28;20031;-45
2022/08/14 11:55:20;;;;;;;4.72;3.55;;;32.30;75.90;;;;;;4962354;28;20085;-47
2022/08/14 11:57:46;;;;;;;6.25;3.50;;;32.50;73.60;;;;;;4964039;28;20185;-48
2022/08/14 12:00:16;;;;;;;4.90;3.67;;;32.70;74.20;;;;;;4960718;28;20122;-47
2022/08/14 12:02:56;;;;;;;4.70;3.55;;;32.70;72.20;;;;;;4959131;28;20047;-46
2022/08/14 12:05:33;;;;;;;5.45;3.58;;;32.70;71.50;;;;;;4957954;28;20063;-47
2022/08/14 12:08:00;;;;;;;6.25;3.60;;;32.60;72.20;;;;;;4960400;28;20039;-47
2022/08/14 12:10:28;;;;;;;4.60;3.45;;;32.70;72.00;;;;;;4960061;28;20125;-48
2022/08/14 12:12:55;;;;;;;5.85;3.20;;;32.80;71.50;;;;;;4961151;28;20054;-47
2022/08/14 12:15:32;;;;;;;4.65;3.05;;;32.90;70.90;;;;;;4962895;28;20046;-46
2022/08/14 12:17:59;;;;;;;4.05;3.20;;;33.20;67.80;;;;;;4959377;28;20476;-49
2022/08/14 12:20:35;;;;;;;5.20;3.28;;;33.10;70.50;;;;;;4959075;28;20069;-45
2022/08/14 12:23:06;;;;;;;4.00;2.90;;;33.20;70.10;;;;;;4957123;28;20111;-45
2022/08/14 12:25:33;;;;;;;5.18;3.60;;;33.20;69.90;;;;;;4954412;28;20051;-48
2022/08/14 12:28:04;;;;;;;4.93;3.20;;;33.50;70.40;;;;;;4956854;28;20035;-48
2022/08/14 12:30:32;;;;;;;4.68;3.13;;;33.60;66.50;;;;;;4954185;28;20070;-45
2022/08/14 12:33:00;;;;;;;4.55;3.13;;;33.80;67.20;;;;;;4954879;28;21442;-49
2022/08/14 12:35:41;;;;;;;4.15;3.15;;;33.70;66.20;;;;;;4954635;28;20042;-47
2022/08/14 12:38:09;;;;;;;5.22;3.20;;;33.70;66.20;;;;;;4959058;28;20042;-46
2022/08/14 12:40:45;;;;;;;5.85;3.28;;;33.80;65.50;;;;;;4958099;28;20054;-47
2022/08/14 12:43:10;;;;;;;4.75;3.75;;;33.90;66.30;;;;;;4956579;28;20482;-49
2022/08/14 12:45:36;;;;;;;6.90;3.53;;;33.90;66.60;;;;;;4957551;28;20043;-48
2022/08/14 12:48:04;;;;;;;4.40;3.50;;;34.30;66.50;;;;;;4957984;28;20034;-47
2022/08/14 12:50:40;;;;;;;6.38;3.90;;;33.90;65.60;;;;;;4957536;28;20475;-46
2022/08/14 12:53:08;;;;;;;5.22;3.78;;;34.20;67.30;;;;;;4959254;28;20109;-45
2022/08/14 12:55:38;;;;;;;5.07;3.78;;;33.70;67.00;;;;;;4958217;28;20629;-48
2022/08/14 12:58:06;;;;;;;5.15;3.63;;;33.50;66.30;;;;;;4958944;28;20077;-49
2022/08/14 13:00:37;;;;;;;6.43;3.80;;;33.30;66.40;;;;;;4961995;28;20045;-50
2022/08/14 13:03:04;;;;;;;4.43;3.50;;;33.00;66.30;;;;;;4962883;28;20059;-47
2022/08/14 13:05:34;;;;;;;8.00;3.83;;;32.40;68.50;;;;;;4962598;28;20391;-47
2022/08/14 13:08:04;;;;;;;6.60;3.72;;;32.90;68.90;;;;;;4944854;28;20093;-48